M I D A S
Marine Information and Data Acquisition System
Tripno 185 of the Zeeleeuw from 2001-12-14 07:15:00 to 2001-12-14 18:30:00
Back to CruiseResearch ActivitiesStationsMapUnderway DataData graphs

EquipmentUnitsComment
TimeDGPSUTC
LatitudeDGPSDM.mWGS84
LongitudeDGPSDM.mWGS84
TemperatureSBE03/SBE38deg celciusITS90
ConductivitySBE21S/mITS90
SalinitySBE21 Practical Salinity Units
ChlorophylAChelsea fluorimeterg/lCalibrated in Aceton
Missing or incorrect values are displayed as -999
Sea surface data collected by the RV Zeeleeuw from 2001-12-14 07:15:00 to 2001-12-14 18:30:00
Time Latitude Longitude Temperature Conductivity Salinity ChlorophylA
2001-12-14 07:21:26 51°13.687 2°55.905 -999 -999 -999  
2001-12-14 07:22:26 51°13.688 2°55.906 -999 -999 -999  
2001-12-14 07:23:26 51°13.688 2°55.905 -999 -999 -999  
2001-12-14 07:24:26 51°13.688 2°55.905 -999 -999 -999  
2001-12-14 07:25:26 51°13.688 2°55.905 -999 -999 -999  
2001-12-14 07:26:43 51°13.689 2°55.905 -999 -999 -999  
2001-12-14 07:27:58 51°13.689 2°55.905 -999 -999 -999  
2001-12-14 07:28:58 51°13.689 2°55.905 -999 -999 -999  
2001-12-14 07:29:58 51°13.689 2°55.905 -999 -999 -999  
2001-12-14 07:30:58 51°13.689 2°55.905 -999 -999 -999  
2001-12-14 07:31:58 51°13.689 2°55.904 -999 -999 -999  
2001-12-14 07:32:58 51°13.689 2°55.904 -999 -999 -999  
2001-12-14 07:36:33 51°13.689 2°55.905 8.753003 1.210359 10.056667  
2001-12-14 07:37:33 51°13.689 2°55.905 9.19679 1.589717 13.480225  
2001-12-14 07:38:33 51°13.689 2°55.905 8.445949 1.406988 11.937078  
2001-12-14 07:39:33 51°13.689 2°55.905 8.000967 1.276084 10.888888  
2001-12-14 07:40:33 51°13.689 2°55.905 7.744859 1.239738 10.706703  
2001-12-14 07:41:33 51°13.689 2°55.905 7.510344 1.220919 10.593151  
2001-12-14 07:42:33 51°13.689 2°55.905 7.310623 1.220323 10.663649  
2001-12-14 07:43:34 51°13.689 2°55.904 7.219807 1.176418 10.296255  
2001-12-14 07:44:33 51°13.688 2°55.905 7.052076 1.153126 10.122299  
2001-12-14 07:45:33 51°13.689 2°55.905 6.960842 1.323303 11.800094  
2001-12-14 07:46:33 51°13.689 2°55.905 6.846481 1.313243 11.738731  
2001-12-14 07:47:34 51°13.689 2°55.904 6.725401 1.485338 13.451752  
2001-12-14 07:48:33 51°13.689 2°55.904 6.730878 1.530599 13.924681  
2001-12-14 07:49:34 51°13.689 2°55.905 6.947861 2.231879 20.90523  
2001-12-14 07:50:33 51°13.689 2°55.905 6.877158 2.387811 22.590829  
2001-12-14 07:51:34 51°13.689 2°55.905 6.864751 2.431103 23.076451  
2001-12-14 07:52:33 51°13.689 2°55.906 6.871053 2.465999 23.44116  
2001-12-14 07:53:34 51°13.689 2°55.906 6.880309 2.504199 23.833452  
2001-12-14 07:54:33 51°13.688 2°55.905 6.879127 2.527 24.066442  
2001-12-14 07:55:33 51°13.689 2°55.906 6.884296 2.545503 24.263552  
2001-12-14 07:56:33 51°13.689 2°55.905 6.910724 2.570406 24.51715  
2001-12-14 07:57:33 51°13.687 2°55.905 6.93055 2.607015 24.879655  
2001-12-14 07:58:33 51°13.687 2°55.904 6.803321 2.559304 24.388895  
2001-12-14 07:59:34 51°13.694 2°55.853 6.963055 2.39281 22.71118  
2001-12-14 08:00:33 51°13.696 2°55.778 6.83791 2.509699 23.855176  
2001-12-14 08:01:33 51°13.706 2°55.755 6.67559 2.404008 22.861456  
2001-12-14 08:02:33 51°13.775 2°55.68 6.388111 2.217392 21.027612  
2001-12-14 08:03:33 51°13.849 2°55.605 6.316385 1.814911 17.040711  
2001-12-14 08:04:34 51°13.93 2°55.548 6.536814 1.888678 17.7805  
2001-12-14 08:05:33 51°14.016 2°55.492 6.680282 2.345126 22.359326  
2001-12-14 08:06:33 51°14.11 2°55.427 6.692527 2.4938 23.860846  
2001-12-14 08:07:33 51°14.211 2°55.329 6.606166 2.531503 24.263693  
2001-12-14 08:08:33 51°14.295 2°55.189 6.438692 2.451103 23.503057  
2001-12-14 08:09:33 51°14.372 2°55.001 6.324728 2.348626 22.523713  
2001-12-14 08:10:33 51°14.382 2°54.712 6.235727 2.498504 24.213211  
2001-12-14 08:11:33 51°14.291 2°54.382 6.620008 2.772595 27.055036  
2001-12-14 08:12:33 51°14.174 2°54.06 15.561113 2.917904 28.357848  
2001-12-14 08:13:33 51°14.061 2°53.731 6.910871 2.962045 28.739907  
2001-12-14 08:14:33 51°13.944 2°53.398 29.123815 2.980663 28.838467  
2001-12-14 08:15:33 51°13.825 2°53.063 6.935321 2.990573 28.932977  
2001-12-14 08:16:33 51°13.705 2°52.724 6.903786 2.955137 28.551269  
2001-12-14 08:17:33 51°13.584 2°52.383 6.874401 2.955638 28.624749  
2001-12-14 08:18:33 51°13.463 2°52.038 6.877946 2.959642 28.656269  
2001-12-14 08:19:33 51°13.341 2°51.691 6.892959 2.971754 28.75745  
2001-12-14 08:20:33 51°13.218 2°51.344 6.859482 2.961444 28.678345  
2001-12-14 08:21:33 51°13.095 2°50.993 6.839684 2.961044 28.683237  
2001-12-14 08:22:33 51°12.972 2°50.647 6.844018 2.962145 28.710551  
2001-12-14 08:23:33 51°12.85 2°50.298 6.860221 2.969052 28.759672  
2001-12-14 08:24:32 51°12.73 2°49.955 6.879275 2.969752 28.77141  
2001-12-14 08:25:33 51°12.607 2°49.596 14.589889 2.976459 28.819749  
2001-12-14 08:26:34 51°12.489 2°49.232 6.891433 2.974357 28.814987  
2001-12-14 08:27:34 51°12.39 2°48.863 14.152366 2.976058 28.804142  
2001-12-14 08:28:33 51°12.289 2°48.498 14.3944 2.982965 28.870858  
2001-12-14 08:29:34 51°12.185 2°48.12 6.896355 2.975358 28.793118  
2001-12-14 08:30:33 51°12.088 2°47.761 14.491032 2.981164 28.874302  
2001-12-14 08:31:33 51°12.003 2°47.393 12.985579 2.993276 28.959718  
2001-12-14 08:32:33 51°11.921 2°47.018 14.258715 2.995478 28.975423  
2001-12-14 08:33:34 51°11.848 2°46.631 13.891418 2.995578 28.975782  
2001-12-14 08:34:33 51°11.772 2°46.256 12.329185 3.001184 29.041364  
2001-12-14 08:35:33 51°11.696 2°45.874 13.908531 3.008092 29.141648  
2001-12-14 08:36:33 51°11.622 2°45.489 13.723864 3.021106 29.285244  
2001-12-14 08:37:33 51°11.555 2°45.115 12.821445 3.031517 29.345557  
2001-12-14 08:38:32 51°11.488 2°44.744 13.71779 3.03432 29.362572  
2001-12-14 08:39:33 51°11.421 2°44.361 13.347915 3.039826 29.402703  
2001-12-14 08:40:33 51°11.356 2°43.986 12.69118 3.044832 29.43457  
2001-12-14 08:41:33 51°11.291 2°43.613 13.533397 3.049037 29.470829  
2001-12-14 08:42:33 51°11.225 2°43.239 12.552583 3.052941 29.499539  
2001-12-14 08:43:33 51°11.164 2°42.868 13.331952 3.062852 29.56923  
2001-12-14 08:44:34 51°11.112 2°42.492 7.120428 3.071562 29.627443  
2001-12-14 08:45:33 51°11.077 2°42.249 7.176115 3.081574 29.698703  
2001-12-14 08:46:33 51°11.07 2°42.1 7.20345 3.088782 29.733496  
2001-12-14 08:47:33 51°11.078 2°42.001 8.401834 3.091685 29.74486  
2001-12-14 08:48:34 51°11.131 2°41.927 7.219611 3.091585 29.735121  
2001-12-14 08:49:34 51°11.132 2°41.895 7.191989 3.08748 29.695088  
2001-12-14 08:50:33 51°11.166 2°41.931 7.176752 3.083475 29.666212  
2001-12-14 08:51:34 51°11.16 2°41.962 7.170578 3.077869 29.623162  
2001-12-14 08:52:34 51°11.144 2°41.97 7.15264 3.074565 29.588738  
2001-12-14 08:53:34 51°11.128 2°41.968 7.142787 3.073063 29.587882  
2001-12-14 08:54:33 51°11.112 2°41.956 7.165726 3.074765 29.603832  
2001-12-14 08:55:34 51°11.095 2°41.935 7.150924 3.076868 29.618997  
2001-12-14 08:56:33 51°11.076 2°41.916 7.141316 3.076768 29.62442  
2001-12-14 08:57:34 51°11.056 2°41.919 7.155189 3.076868 29.631256  
2001-12-14 08:58:33 51°11.043 2°41.917 7.192772 3.081173 29.661198  
2001-12-14 08:59:33 51°11.023 2°41.945 7.221864 3.086779 29.692688  
2001-12-14 09:00:33 51°10.949 2°41.911 7.219611 3.090484 29.716191  
2001-12-14 09:01:33 51°10.883 2°41.64 7.231998 3.094589 29.756937  
2001-12-14 09:02:34 51°10.801 2°41.282 7.236747 3.097092 29.769807  
2001-12-14 09:03:33 51°10.727 2°40.924 7.264693 3.096591 29.761597  
2001-12-14 09:04:33 51°10.654 2°40.556 7.25471 3.097992 29.749049  
2001-12-14 09:05:33 51°10.579 2°40.196 7.293751 3.09619 29.731359  
2001-12-14 09:06:33 51°10.517 2°39.828 7.31072 3.099394 29.744454  
2001-12-14 09:07:33 51°10.464 2°39.462 7.342348 3.100495 29.740284  
2001-12-14 09:08:33 51°10.41 2°39.094 7.354028 3.109205 29.799478  
2001-12-14 09:09:33 51°10.351 2°38.724 7.354809 3.110808 29.817898  
2001-12-14 09:10:34 51°10.307 2°38.34 7.365656 3.115013 29.858138  
2001-12-14 09:11:33 51°10.299 2°37.958 7.379236 3.121821 29.922351  
2001-12-14 09:12:33 51°10.297 2°37.569 7.448068 3.135138 30.045384  
2001-12-14 09:13:33 51°10.311 2°37.195 7.570806 3.182601 30.45629  
2001-12-14 09:14:33 51°10.419 2°36.89 7.617296 3.204831 30.615151  
2001-12-14 09:15:33 51°10.6 2°36.723 7.743644 3.199222 30.499442  
2001-12-14 09:16:34 51°10.806 2°36.632 7.850159 3.209135 30.487878  
2001-12-14 09:17:33 51°11.001 2°36.709 7.798598 3.214442 30.502194  
2001-12-14 09:18:33 51°11.192 2°36.835 7.736942 3.202826 30.422993  
2001-12-14 09:19:33 51°11.381 2°36.961 7.694622 3.19121 30.349445  
2001-12-14 09:20:33 51°11.572 2°37.095 7.711 3.186304 30.321012  
2001-12-14 09:21:33 51°11.763 2°37.225 7.75156 3.191611 30.354387  
2001-12-14 09:22:33 51°11.953 2°37.356 7.770108 3.200223 30.409415  
2001-12-14 09:23:33 51°12.144 2°37.488 7.837067 3.204929 30.450194  
2001-12-14 09:24:33 51°12.336 2°37.621 7.855153 3.217547 30.549374  
2001-12-14 09:25:34 51°12.529 2°37.756 7.92091 3.237275 30.71508  
2001-12-14 09:26:33 51°12.717 2°37.888 7.87052 3.243885 30.774272  
2001-12-14 09:27:33 51°12.908 2°38.021 7.872508 3.245387 30.794455  
2001-12-14 09:28:33 51°13.098 2°38.158 7.945412 3.251496 30.838097  
2001-12-14 09:29:33 51°13.291 2°38.294 8.008174 3.257904 30.840855  
2001-12-14 09:30:33 51°13.483 2°38.429 8.012914 3.256201 30.782811  
2001-12-14 09:31:34 51°13.677 2°38.569 7.925801 3.250293 30.722409  
2001-12-14 09:32:33 51°13.863 2°38.704 7.872071 3.223454 30.528486  
2001-12-14 09:33:33 51°14.052 2°38.844 7.846862 3.203727 30.358545  
2001-12-14 09:34:34 51°14.243 2°38.987 7.846717 3.196416 30.298477  
2001-12-14 09:35:34 51°14.433 2°39.123 7.829453 3.194213 30.274645  
2001-12-14 09:36:34 51°14.628 2°39.242 7.863104 3.191209 30.257553  
2001-12-14 09:37:33 51°14.828 2°39.313 7.897271 3.197317 30.28124  
2001-12-14 09:38:34 51°15.03 2°39.405 7.916018 3.202725 30.311956  
2001-12-14 09:39:33 51°15.205 2°39.564 7.912724 3.203626 30.320676  
2001-12-14 09:40:33 51°15.385 2°39.724 7.895187 3.205629 30.334445  
2001-12-14 09:41:34 51°15.567 2°39.888 7.855832 3.19912 30.297971  
2001-12-14 09:42:33 51°15.659 2°39.978 7.838522 3.193212 30.261257  
2001-12-14 09:43:34 51°15.687 2°40.015 7.826057 3.19161 30.255986  
2001-12-14 09:44:33 51°15.696 2°40.018 7.818005 3.189107 30.241975  
2001-12-14 09:45:33 51°15.697 2°40.006 7.830811 3.189107 30.241254  
2001-12-14 09:46:33 51°15.695 2°39.983 7.837843 3.190208 30.248487  
2001-12-14 09:47:34 51°15.69 2°39.951 7.842644 3.192211 30.260847  
2001-12-14 09:48:33 51°15.683 2°39.918 7.84114 3.192811 30.262824  
2001-12-14 09:49:34 51°15.677 2°39.885 7.838716 3.192611 30.264328  
2001-12-14 09:50:34 51°15.672 2°39.852 7.835709 3.192311 30.264062  
2001-12-14 09:51:33 51°15.67 2°39.822 7.846426 3.192111 30.262682  
2001-12-14 09:52:34 51°15.668 2°39.795 7.855541 3.194814 30.279505  
2001-12-14 09:53:34 51°15.703 2°39.87 7.860195 3.196016 30.287781  
2001-12-14 09:54:32 51°15.689 2°40.119 7.846038 3.197518 30.297041  
2001-12-14 09:55:33 51°15.668 2°40.463 7.822662 3.191209 30.258995  
2001-12-14 09:56:33 51°15.641 2°40.814 7.804081 3.189807 30.24068  
2001-12-14 09:57:34 51°15.613 2°41.175 7.790882 3.183299 30.204798  
2001-12-14 09:58:33 51°15.588 2°41.529 7.774234 3.174387 30.155858  
2001-12-14 09:59:33 51°15.562 2°41.891 7.747724 3.174387 30.160904  
2001-12-14 10:00:33 51°15.531 2°42.253 7.785204 3.178192 30.182874  
2001-12-14 10:01:33 51°15.497 2°42.614 7.814076 3.1845 30.218858  
2001-12-14 10:02:34 51°15.472 2°42.983 7.866836 3.188506 30.24216  
2001-12-14 10:03:34 51°15.477 2°43.346 7.823002 3.189507 30.245458  
2001-12-14 10:04:33 51°15.497 2°43.704 7.80413 3.188205 30.237564  
2001-12-14 10:05:33 51°15.524 2°44.063 7.746413 3.182598 30.1996  
2001-12-14 10:06:33 51°15.559 2°44.424 7.594518 3.165776 30.086211  
2001-12-14 10:07:34 51°15.604 2°44.789 7.475922 3.133535 29.886155  
2001-12-14 10:08:34 51°15.65 2°45.15 7.442555 3.117114 29.78462  
2001-12-14 10:09:34 51°15.698 2°45.51 7.398087 3.109205 29.728291  
2001-12-14 10:10:33 51°15.747 2°45.867 7.337265 3.100494 29.677755  
2001-12-14 10:11:34 51°15.799 2°46.237 7.339758 3.08808 29.601495  
2001-12-14 10:12:33 51°15.849 2°46.596 7.28348 3.082473 29.56142  
2001-12-14 10:13:33 51°15.898 2°46.963 7.321525 3.081272 29.560861  
2001-12-14 10:14:34 51°15.949 2°47.338 7.328858 3.084375 29.593775  
2001-12-14 10:15:33 51°15.999 2°47.7 7.367317 3.090583 29.645964  
2001-12-14 10:16:33 51°16.05 2°48.069 7.374693 3.100995 29.719681  
2001-12-14 10:17:34 51°16.098 2°48.443 7.414882 3.115413 29.830635  
2001-12-14 10:18:34 51°16.143 2°48.812 7.424107 3.12102 29.869082  
2001-12-14 10:19:33 51°16.187 2°49.175 7.40751 3.119718 29.857469  
2001-12-14 10:20:33 51°16.23 2°49.544 7.369613 3.119218 29.856496  
2001-12-14 10:21:34 51°16.278 2°49.919 7.32441 3.109406 29.793672  
2001-12-14 10:22:34 51°16.322 2°50.29 7.308862 3.098793 29.722234  
2001-12-14 10:23:33 51°16.375 2°50.651 7.189049 3.085677 29.640633  
2001-12-14 10:24:33 51°16.462 2°51.005 7.139355 3.069959 29.541195  
2001-12-14 10:25:34 51°16.61 2°51.301 7.117289 3.062251 29.490081  
2001-12-14 10:26:34 51°16.773 2°51.569 7.154405 3.064253 29.509954  
2001-12-14 10:27:34 51°16.944 2°51.822 7.207516 3.073964 29.575872  
2001-12-14 10:28:33 51°17.133 2°52.026 7.240516 3.084476 29.658111  
2001-12-14 10:29:33 51°17.345 2°52.173 7.300745 3.097492 29.762501  
2001-12-14 10:30:32 51°17.56 2°52.165 7.374547 3.111709 29.85345  
2001-12-14 10:31:34 51°17.75 2°52.047 7.488698 3.131634 30.000266  
2001-12-14 10:32:34 51°17.872 2°51.96 7.58298 3.155864 30.160968  
2001-12-14 10:33:33 51°17.97 2°51.823 7.554929 3.167279 30.25183  
2001-12-14 10:34:34 51°18.083 2°51.642 7.567397 3.174189 30.314653  
2001-12-14 10:35:33 51°18.208 2°51.409 7.580156 3.176291 30.328855  
2001-12-14 10:36:34 51°18.314 2°51.137 7.563599 3.183501 30.389708  
2001-12-14 10:37:34 51°18.417 2°50.991 7.529449 3.174589 30.32326  
2001-12-14 10:38:33 51°18.482 2°50.916 7.507127 3.171585 30.31192  
2001-12-14 10:39:34 51°18.532 2°50.883 7.502983 3.163575 30.242503  
2001-12-14 10:40:33 51°18.564 2°50.876 7.506932 3.162573 30.235552  
2001-12-14 10:41:33 51°18.568 2°50.885 7.503861 3.162573 30.233368  
2001-12-14 10:42:33 51°18.572 2°50.895 7.50157 3.162273 30.232375  
2001-12-14 10:43:34 51°18.578 2°50.904 7.495622 3.161772 30.229991  
2001-12-14 10:44:33 51°18.583 2°50.912 7.495427 3.160371 30.220257  
2001-12-14 10:45:34 51°18.587 2°50.921 7.496743 3.158969 30.204699  
2001-12-14 10:46:33 51°18.59 2°50.93 7.495622 3.158068 30.195893  
2001-12-14 10:47:34 51°18.604 2°50.936 7.49333 3.157467 30.190265  
2001-12-14 10:48:33 51°18.671 2°51.08 7.485431 3.156365 30.175707  
2001-12-14 10:49:33 51°18.727 2°51.427 7.505665 3.156065 30.175437  
2001-12-14 10:50:34 51°18.802 2°51.802 7.517753 3.165678 30.260373  
2001-12-14 10:51:33 51°18.882 2°52.161 7.526915 3.171585 30.314109  
2001-12-14 10:52:32 51°18.959 2°52.519 7.564232 3.17529 30.343803  
2001-12-14 10:53:34 51°19.039 2°52.894 7.65918 3.189309 30.457659  
2001-12-14 10:54:33 51°19.117 2°53.251 7.691463 3.222055 30.710312  
2001-12-14 10:55:34 51°19.197 2°53.62 7.675615 3.22576 30.748681  
2001-12-14 10:56:33 51°19.277 2°53.976 7.63885 3.221955 30.726919  
2001-12-14 10:57:33 51°19.355 2°54.341 7.632525 3.216848 30.692859  
2001-12-14 10:58:34 51°19.437 2°54.711 7.633547 3.214244 30.674184  
2001-12-14 10:59:33 51°19.516 2°55.07 7.612575 3.213243 30.667283  
2001-12-14 11:00:33 51°19.598 2°55.436 7.622551 3.212341 30.657025  
2001-12-14 11:01:33 51°19.68 2°55.804 7.61642 3.21124 30.643181  
2001-12-14 11:02:33 51°19.763 2°56.175 7.608828 3.207635 30.616853  
2001-12-14 11:03:34 51°19.848 2°56.555 7.599045 3.20453 30.595068  
2001-12-14 11:04:34 51°19.929 2°56.929 7.590818 3.20413 30.58496  
2001-12-14 11:05:34 51°20.013 2°57.302 7.571586 3.200525 30.56081  
2001-12-14 11:06:34 51°20.098 2°57.674 7.556585 3.196119 30.531843  
2001-12-14 11:07:34 51°20.181 2°58.046 7.502057 3.192314 30.507007  
2001-12-14 11:08:34 51°20.265 2°58.419 7.470703 3.177895 30.415977  
2001-12-14 11:09:34 51°20.349 2°58.794 7.450166 3.170785 30.350927  
2001-12-14 11:10:34 51°20.434 2°59.171 7.457923 3.165979 30.312447  
2001-12-14 11:11:34 51°20.519 2°59.548 7.454216 3.165778 30.307402  
2001-12-14 11:12:34 51°20.605 2°59.926 7.468655 3.165077 30.301438  
2001-12-14 11:13:34 51°20.691 3°0.306 7.393204 3.168081 30.326679  
2001-12-14 11:14:34 51°20.78 3°0.687 7.365167 3.157167 30.277537  
2001-12-14 11:15:33 51°20.865 3°1.063 7.346844 3.15146 30.23745  
2001-12-14 11:16:33 51°20.952 3°1.445 7.33966 3.147956 30.216331  
2001-12-14 11:17:34 51°21.041 3°1.838 7.338634 3.147956 30.220719  
2001-12-14 11:18:33 51°21.128 3°2.216 7.346942 3.146754 30.20869  
2001-12-14 11:19:34 51°21.218 3°2.611 7.370199 3.149958 30.22955  
2001-12-14 11:20:33 51°21.306 3°2.995 7.373716 3.156066 30.277559  
2001-12-14 11:21:33 51°21.395 3°3.384 7.387099 3.160372 30.323996  
2001-12-14 11:22:34 51°21.487 3°3.777 7.447483 3.172588 30.441209  
2001-12-14 11:23:34 51°21.576 3°4.164 7.490941 3.193417 30.635069  
2001-12-14 11:24:33 51°21.662 3°4.542 7.459679 3.214746 30.828914  
2001-12-14 11:25:33 51°21.752 3°4.928 7.401309 3.20293 30.742045  
2001-12-14 11:26:34 51°21.829 3°5.329 7.39462 3.19572 30.675823  
2001-12-14 11:27:34 51°21.913 3°5.723 7.382411 3.190413 30.629059  
2001-12-14 11:28:34 51°22.01 3°6.104 7.41659 3.183704 30.565165  
2001-12-14 11:29:34 51°22.215 3°6.325 7.387734 3.180299 30.533422  
2001-12-14 11:30:33 51°22.441 3°6.465 7.390518 3.187909 30.602459  
2001-12-14 11:31:34 51°22.675 3°6.602 7.408486 3.183303 30.545403  
2001-12-14 11:32:34 51°22.908 3°6.72 7.45202 3.198724 30.692172  
2001-12-14 11:33:34 51°23.139 3°6.825 7.486455 3.22386 30.918234  
2001-12-14 11:34:34 51°23.368 3°6.934 7.530326 3.242086 31.082635  
2001-12-14 11:35:34 51°23.596 3°7.04 7.630336 3.264018 31.26442  
2001-12-14 11:36:33 51°23.819 3°7.148 7.558192 3.279441 31.411521  
2001-12-14 11:37:34 51°24.045 3°7.266 7.726693 3.280343 31.415802  
2001-12-14 11:38:34 51°24.265 3°7.383 7.947397 3.317298 31.595764  
2001-12-14 11:39:33 51°24.483 3°7.463 7.964968 3.336027 31.677985  
2001-12-14 11:40:34 51°24.71 3°7.54 7.983938 3.33182 31.650998  
2001-12-14 11:41:34 51°24.934 3°7.619 7.95219 3.333222 31.642445  
2001-12-14 11:42:34 51°25.157 3°7.7 7.985003 3.33212 31.630098  
2001-12-14 11:43:34 51°25.383 3°7.792 7.957079 3.330618 31.621048  
2001-12-14 11:44:34 51°25.611 3°7.877 8.006143 3.334023 31.634345  
2001-12-14 11:45:33 51°25.835 3°7.977 8.092712 3.341935 31.666475  
2001-12-14 11:46:34 51°26.063 3°8.104 8.263286 3.354355 31.717323  
2001-12-14 11:47:34 51°26.27 3°8.229 8.298493 3.369579 31.789118  
2001-12-14 11:48:34 51°26.375 3°8.374 8.347057 3.383501 31.851542  
2001-12-14 11:49:34 51°26.43 3°8.466 8.384093 3.390613 31.883867  
2001-12-14 11:50:34 51°26.448 3°8.495 8.396065 3.39522 31.90499  
2001-12-14 11:51:33 51°26.46 3°8.51 8.400632 3.396422 31.910041  
2001-12-14 11:52:34 51°26.47 3°8.523 8.443451 3.397023 31.912567  
2001-12-14 11:53:34 51°26.478 3°8.535 8.400488 3.397424 31.913751  
2001-12-14 11:54:34 51°26.486 3°8.545 8.403084 3.397124 31.912863  
2001-12-14 11:55:33 51°26.493 3°8.556 8.402219 3.397524 31.915543  
2001-12-14 11:56:34 51°26.5 3°8.568 8.403805 3.397124 31.911367  
2001-12-14 11:57:34 51°26.507 3°8.578 8.404382 3.397725 31.91464  
2001-12-14 11:58:34 51°26.516 3°8.589 8.407122 3.398125 31.915824  
2001-12-14 11:59:34 51°26.519 3°8.517 8.415533 3.397524 31.912552  
2001-12-14 12:00:34 51°26.436 3°8.584 8.39044 3.398526 31.919999  
2001-12-14 12:01:34 51°26.272 3°8.668 8.322418 3.393417 31.896662  
2001-12-14 12:02:34 51°26.077 3°8.714 8.224638 3.3827 31.852905  
2001-12-14 12:03:34 51°25.9 3°8.817 8.122991 3.367977 31.791829  
2001-12-14 12:04:34 51°25.77 3°8.927 8.057731 3.354155 31.725722  
2001-12-14 12:05:34 51°25.675 3°8.957 8.000048 3.345842 31.689494  
2001-12-14 12:06:34 51°25.598 3°8.985 7.956498 3.337529 31.65394  
2001-12-14 12:07:33 51°25.555 3°9.027 7.944299 3.33192 31.624984  
2001-12-14 12:08:33 51°25.528 3°9.068 7.912046 3.329015 31.615449  
2001-12-14 12:09:34 51°25.454 3°9.139 7.891311 3.32541 31.599273  
2001-12-14 12:10:34 51°25.294 3°9.346 7.843614 3.321404 31.584122  
2001-12-14 12:11:34 51°25.133 3°9.606 7.786611 3.314393 31.55456  
2001-12-14 12:12:34 51°24.966 3°9.87 7.732522 3.306481 31.518431  
2001-12-14 12:13:34 51°24.799 3°10.135 7.67192 3.298569 31.48223  
2001-12-14 12:14:34 51°24.632 3°10.402 -999 3.290457 31.452127  
2001-12-14 12:15:34 51°24.463 3°10.669 7.559995 3.286351 31.432748  
2001-12-14 12:16:34 51°24.277 3°10.91 7.634958 3.254803 31.053926  
2001-12-14 12:17:34 51°24.066 3°11.07 7.729413 3.296266 31.482724  
2001-12-14 12:18:34 51°23.85 3°11.193 7.510734 3.300973 31.528781  
2001-12-14 12:19:33 51°23.674 3°11.314 7.443677 3.266522 31.342251  
2001-12-14 12:20:34 51°23.588 3°11.409 7.316294 3.212344 30.865941  
2001-12-14 12:21:34 51°23.548 3°11.501 7.333551 3.185106 30.614108  
2001-12-14 12:22:34 51°23.531 3°11.58 7.347284 3.182502 30.592337  
2001-12-14 12:23:34 51°23.522 3°11.642 7.338536 3.17369 30.517079  
2001-12-14 12:24:34 51°23.518 3°11.692 7.316099 3.168283 30.463977  
2001-12-14 12:25:34 51°23.516 3°11.733 7.31517 3.168383 30.447338  
2001-12-14 12:26:34 51°23.502 3°11.774 7.303337 3.169885 30.475855  
2001-12-14 12:27:34 51°23.355 3°11.763 7.316392 3.174992 30.520581  
2001-12-14 12:28:34 51°23.144 3°11.748 7.345085 3.168083 30.438248  
2001-12-14 12:29:34 51°22.971 3°11.979 7.363946 3.161674 30.3569  
2001-12-14 12:30:33 51°22.827 3°12.279 7.35007 3.134938 30.061424  
2001-12-14 12:31:34 51°22.687 3°12.603 7.34313 3.125026 29.96791  
2001-12-14 12:32:34 51°22.592 3°12.966 7.25887 3.116315 29.90159  
2001-12-14 12:33:34 51°22.609 3°13.226 7.25241 3.069358 29.455981  
2001-12-14 12:34:35 51°22.609 3°13.277 7.282257 3.070659 29.461923  
2001-12-14 12:35:34 51°22.637 3°13.27 7.281914 3.084476 29.599142  
2001-12-14 12:36:34 51°22.647 3°13.275 7.26758 3.087579 29.624884  
2001-12-14 12:37:34 51°22.661 3°13.266 7.3094 3.078468 29.542595  
2001-12-14 12:38:34 51°22.658 3°13.254 7.273059 3.091084 29.656302  
2001-12-14 12:39:34 51°22.645 3°13.262 7.271298 3.075665 29.507854  
2001-12-14 12:40:34 51°22.632 3°13.28 7.299327 3.08778 29.626289  
2001-12-14 12:41:33 51°22.618 3°13.301 7.25427 3.073262 29.496681  
2001-12-14 12:42:34 51°22.6 3°13.296 7.245509 3.067756 29.44828  
2001-12-14 12:43:34 51°22.587 3°13.284 7.225291 3.066855 29.443008  
2001-12-14 12:44:34 51°22.575 3°13.284 7.222696 3.058345 29.369136  
2001-12-14 12:45:33 51°22.565 3°13.289 7.196642 3.054841 29.336945  
2001-12-14 12:46:34 51°22.552 3°13.248 7.201002 3.045931 29.25663  
2001-12-14 12:47:34 51°22.51 3°13.01 7.177732 3.046532 29.263004  
2001-12-14 12:48:34 51°22.448 3°12.708 7.156414 3.039524 29.203551  
2001-12-14 12:49:34 51°22.386 3°12.403 7.135825 3.031815 29.144423  
2001-12-14 12:50:34 51°22.327 3°12.096 7.112041 3.024207 29.088423  
2001-12-14 12:51:34 51°22.266 3°11.786 7.106645 3.023807 29.095509  
2001-12-14 12:52:34 51°22.207 3°11.476 7.101446 3.024007 29.102601  
2001-12-14 12:53:34 51°22.123 3°11.177 7.142983 3.025409 29.121049  
2001-12-14 12:54:34 51°22.015 3°10.902 7.086874 3.028412 29.154403  
2001-12-14 12:55:34 51°21.905 3°10.63 7.07598 3.034719 29.233597  
2001-12-14 12:56:34 51°21.799 3°10.354 7.073036 3.03572 29.251386  
2001-12-14 12:57:34 51°21.696 3°10.076 7.08393 3.039925 29.292575  
2001-12-14 12:58:34 51°21.587 3°9.792 7.102181 3.042628 29.315631  
2001-12-14 12:59:33 51°21.482 3°9.509 7.10949 3.045732 29.335791  
2001-12-14 13:00:34 51°21.373 3°9.22 7.117534 3.049836 29.372316  
2001-12-14 13:01:34 51°21.267 3°8.935 7.121163 3.05354 29.40457  
2001-12-14 13:02:34 51°21.16 3°8.653 7.126558 3.05294 29.398895  
2001-12-14 13:03:34 51°21.055 3°8.371 7.128519 3.054742 29.408039  
2001-12-14 13:04:34 51°20.948 3°8.089 7.120182 3.054041 29.400584  
2001-12-14 13:05:34 51°20.842 3°7.811 7.15264 3.05354 29.396691  
2001-12-14 13:06:34 51°20.735 3°7.529 7.164011 3.055542 29.395081  
2001-12-14 13:07:34 51°20.628 3°7.248 7.177536 3.056043 29.403264  
2001-12-14 13:08:34 51°20.519 3°6.964 7.143718 3.054742 29.403742  
2001-12-14 13:09:34 51°20.409 3°6.677 7.135089 3.055543 29.404384  
2001-12-14 13:10:34 51°20.298 3°6.391 7.111011 3.054341 29.406644  
2001-12-14 13:11:34 51°20.186 3°6.108 7.021925 3.050537 29.39195  
2001-12-14 13:12:34 51°20.076 3°5.824 6.945009 3.038925 29.353531  
2001-12-14 13:13:34 51°19.966 3°5.541 6.919531 3.033319 29.33605  
2001-12-14 13:14:34 51°19.856 3°5.257 6.892565 3.030216 29.327325  
2001-12-14 13:15:34 51°19.745 3°4.973 6.889415 3.026712 29.312868  
2001-12-14 13:16:34 51°19.637 3°4.686 6.892368 3.025811 29.300353  
2001-12-14 13:17:34 51°19.524 3°4.406 6.893992 3.02461 29.288222  
2001-12-14 13:18:34 51°19.415 3°4.118 6.896355 3.023809 29.276064  
2001-12-14 13:19:34 51°19.308 3°3.836 6.891827 3.021406 29.246065  
2001-12-14 13:20:34 51°19.197 3°3.554 6.883656 3.019204 29.228972  
2001-12-14 13:21:34 51°19.089 3°3.267 6.883607 3.017202 29.217602  
2001-12-14 13:22:34 51°18.98 3°2.98 6.887594 3.017402 29.214006  
2001-12-14 13:23:34 51°18.871 3°2.696 6.898274 3.018503 29.225065  
2001-12-14 13:24:34 51°18.763 3°2.417 6.902605 3.022307 29.256416  
2001-12-14 13:25:34 51°18.656 3°2.14 6.908756 3.02511 29.280643  
2001-12-14 13:26:34 51°18.546 3°1.866 6.920121 3.026211 29.283798  
2001-12-14 13:27:34 51°18.436 3°1.594 6.905951 3.026312 29.290614  
2001-12-14 13:28:34 51°18.326 3°1.318 6.896995 3.026612 29.292388  
2001-12-14 13:29:34 51°18.216 3°1.045 6.89227 3.023809 29.276782  
2001-12-14 13:30:34 51°18.106 3°0.776 6.863619 3.021507 29.267958  
2001-12-14 13:31:34 51°17.999 3°0.504 6.875878 3.020806 29.262616  
2001-12-14 13:32:34 51°17.887 3°0.232 6.882475 3.021106 29.261518  
2001-12-14 13:33:34 51°17.778 2°59.955 6.882179 3.022407 29.271849  
2001-12-14 13:34:34 51°17.665 2°59.679 6.907771 3.023809 29.280374  
2001-12-14 13:35:34 51°17.568 2°59.389 6.892024 3.027413 29.305981  
2001-12-14 13:36:34 51°17.488 2°59.086 6.899701 3.02501 29.28963  
2001-12-14 13:37:34 51°17.402 2°58.785 6.913774 3.025711 29.290657  
2001-12-14 13:38:34 51°17.315 2°58.48 6.938272 3.028113 29.30413  
2001-12-14 13:39:34 51°17.226 2°58.176 6.949189 3.033419 29.337839  
2001-12-14 13:40:34 51°17.139 2°57.868 6.933353 3.032118 29.320343  
2001-12-14 13:41:34 51°17.055 2°57.565 6.882179 3.014799 29.198356  
2001-12-14 13:42:34 51°16.967 2°57.266 6.889858 3.011896 29.166588  
2001-12-14 13:43:34 51°16.879 2°56.96 6.960547 3.016301 29.201514  
2001-12-14 13:44:34 51°16.792 2°56.651 6.959121 3.030015 29.292864  
2001-12-14 13:45:34 51°16.715 2°56.341 6.935321 3.030916 29.304639  
2001-12-14 13:46:34 51°16.637 2°56.031 6.88277 3.023308 29.262095  
2001-12-14 13:47:34 51°16.558 2°55.717 6.940386 3.020705 29.246465  
2001-12-14 13:48:34 51°16.478 2°55.404 6.927844 3.028514 29.2962  
2001-12-14 13:49:34 51°16.397 2°55.089 6.904229 3.026712 29.281969  
2001-12-14 13:50:34 51°16.332 2°54.763 6.916283 3.023909 29.269953  
2001-12-14 13:51:34 51°16.269 2°54.472 6.935173 3.02461 29.26596  
2001-12-14 13:52:34 51°16.225 2°54.272 6.916972 3.026211 29.275184  
2001-12-14 13:53:34 51°16.222 2°54.186 6.914758 3.02481 29.27097  
2001-12-14 13:54:34 51°16.229 2°54.183 6.917956 3.02511 29.272027  
2001-12-14 13:55:34 51°16.237 2°54.18 6.919777 3.02531 29.27345  
2001-12-14 13:56:34 51°16.247 2°54.176 6.918055 3.025611 29.275224  
2001-12-14 13:57:34 51°16.258 2°54.173 6.915693 3.02531 29.27345  
2001-12-14 13:58:34 51°16.269 2°54.169 6.9122 3.02501 29.274546  
2001-12-14 13:59:34 51°16.279 2°54.165 6.917218 3.02511 29.274899  
2001-12-14 14:00:34 51°16.288 2°54.163 6.915496 3.02531 29.274885  
2001-12-14 14:01:34 51°16.295 2°54.159 6.917317 3.025511 29.276308  
2001-12-14 14:02:34 51°16.3 2°54.158 6.914315 3.025511 29.278461  
2001-12-14 14:03:34 51°16.306 2°54.156 6.913479 3.02541 29.275237  
2001-12-14 14:04:34 51°16.323 2°54.13 6.913479 3.02511 29.273463  
2001-12-14 14:05:34 51°16.308 2°54.063 6.899012 3.024309 29.271362  
2001-12-14 14:06:34 51°16.178 2°54.098 6.883804 3.019604 29.223932  
2001-12-14 14:07:34 51°15.977 2°54.213 6.870709 3.020706 29.250054  
2001-12-14 14:08:34 51°15.77 2°54.323 6.85244 3.014899 29.199427  
2001-12-14 14:09:34 51°15.558 2°54.407 6.873712 3.003888 29.105965  
2001-12-14 14:10:34 51°15.345 2°54.508 6.805391 2.998082 29.053842  
2001-12-14 14:11:34 51°15.138 2°54.611 6.800216 2.998582 29.077069  
2001-12-14 14:12:34 51°14.932 2°54.718 6.808742 2.990774 28.999183  
2001-12-14 14:13:34 51°14.724 2°54.826 6.825988 2.97696 28.844951  
2001-12-14 14:14:34 51°14.531 2°54.927 6.718689 2.971654 28.766982  
2001-12-14 14:15:34 51°14.357 2°55.085 6.509637 2.845443 27.589174  
2001-12-14 14:16:34 51°14.246 2°55.277 6.54978 0.838761 7.344311  
2001-12-14 14:17:34 51°14.157 2°55.377 6.60231 0.893509 7.177934  
2001-12-14 14:18:34 51°14.077 2°55.434 6.712322 0.161245 0.97932  
2001-12-14 14:19:34 51°14.006 2°55.489 6.934386 0.072082 0.420201  
2001-12-14 14:20:34 51°13.937 2°55.539 7.18611 0.064188 0.373667  
2001-12-14 14:21:35 51°13.872 2°55.587 7.435772 0.061524 0.360977  
2001-12-14 14:22:34 51°13.811 2°55.634 7.672844 0.060734 0.35949  
2001-12-14 14:23:34 51°13.76 2°55.701 7.901389 0.059945 0.357739  
2001-12-14 14:25:08 51°13.708 2°55.811 8.252157 0.058958 0.3568  
2001-12-14 14:26:07 51°13.693 2°55.874 10.959467 0.058761 0.357248  
2001-12-14 14:27:08 51°13.684 2°55.913 11.835391 0.058662 0.355704  
2001-12-14 14:28:09 51°13.684 2°55.908 11.952458 0.000472 0.00905  
2001-12-14 14:29:09 51°13.684 2°55.903 12.195909 0.000472 0.009016